sensor_id;sensor_type;location;lat;lon;timestamp;P1;durP1;ratioP1;P2;durP2;ratioP2
60612;SDS011;46443;59.792;17.626;2023-04-01T00:01:42;4.07;;;2.00;;
60612;SDS011;46443;59.792;17.626;2023-04-01T00:04:09;4.63;;;2.05;;
60612;SDS011;46443;59.792;17.626;2023-04-01T00:06:35;8.93;;;2.45;;
60612;SDS011;46443;59.792;17.626;2023-04-01T00:09:01;3.88;;;1.90;;
60612;SDS011;46443;59.792;17.626;2023-04-01T00:11:27;3.35;;;1.90;;
60612;SDS011;46443;59.792;17.626;2023-04-01T00:13:53;4.47;;;1.90;;
60612;SDS011;46443;59.792;17.626;2023-04-01T00:16:20;2.75;;;1.90;;
60612;SDS011;46443;59.792;17.626;2023-04-01T00:18:46;3.40;;;2.05;;
60612;SDS011;46443;59.792;17.626;2023-04-01T00:21:13;4.85;;;2.13;;
60612;SDS011;46443;59.792;17.626;2023-04-01T00:23:39;5.28;;;2.15;;
60612;SDS011;46443;59.792;17.626;2023-04-01T00:26:05;4.85;;;1.80;;
60612;SDS011;46443;59.792;17.626;2023-04-01T00:28:31;3.53;;;2.10;;
60612;SDS011;46443;59.792;17.626;2023-04-01T00:31:05;3.00;;;1.98;;
60612;SDS011;46443;59.792;17.626;2023-04-01T00:33:31;3.15;;;2.00;;
60612;SDS011;46443;59.792;17.626;2023-04-01T00:36:05;2.58;;;1.85;;
60612;SDS011;46443;59.792;17.626;2023-04-01T00:38:31;3.20;;;1.90;;
60612;SDS011;46443;59.792;17.626;2023-04-01T00:40:57;3.15;;;2.17;;
60612;SDS011;46443;59.792;17.626;2023-04-01T00:43:24;3.08;;;1.90;;
60612;SDS011;46443;59.792;17.626;2023-04-01T00:45:51;2.95;;;1.83;;
60612;SDS011;46443;59.792;17.626;2023-04-01T00:48:18;2.75;;;1.73;;
60612;SDS011;46443;59.792;17.626;2023-04-01T00:50:48;2.97;;;1.88;;
60612;SDS011;46443;59.792;17.626;2023-04-01T00:53:15;2.85;;;1.60;;
60612;SDS011;46443;59.792;17.626;2023-04-01T00:55:43;3.25;;;1.90;;
60612;SDS011;46443;59.792;17.626;2023-04-01T00:58:14;3.92;;;2.15;;
60612;SDS011;46443;59.792;17.626;2023-04-01T01:00:40;3.15;;;1.90;;
60612;SDS011;46443;59.792;17.626;2023-04-01T01:03:07;4.25;;;2.15;;
60612;SDS011;46443;59.792;17.626;2023-04-01T01:05:38;3.38;;;2.30;;
60612;SDS011;46443;59.792;17.626;2023-04-01T01:08:16;2.17;;;1.73;;
60612;SDS011;46443;59.792;17.626;2023-04-01T01:10:43;4.18;;;2.13;;
60612;SDS011;46443;59.792;17.626;2023-04-01T01:16:24;5.20;;;1.80;;
60612;SDS011;46443;59.792;17.626;2023-04-01T01:35:14;2.67;;;1.92;;
60612;SDS011;46443;59.792;17.626;2023-04-01T01:37:22;3.08;;;1.92;;
60612;SDS011;46443;59.792;17.626;2023-04-01T01:39:51;3.10;;;2.13;;
60612;SDS011;46443;59.792;17.626;2023-04-01T01:42:18;4.20;;;1.80;;
60612;SDS011;46443;59.792;17.626;2023-04-01T01:44:45;2.58;;;1.73;;
60612;SDS011;46443;59.792;17.626;2023-04-01T01:47:13;2.42;;;1.80;;
60612;SDS011;46443;59.792;17.626;2023-04-01T01:49:39;4.88;;;1.80;;
60612;SDS011;46443;59.792;17.626;2023-04-01T01:52:07;3.13;;;2.05;;
60612;SDS011;46443;59.792;17.626;2023-04-01T01:54:33;3.33;;;2.20;;
60612;SDS011;46443;59.792;17.626;2023-04-01T01:57:06;2.70;;;1.80;;
60612;SDS011;46443;59.792;17.626;2023-04-01T01:59:34;3.20;;;1.70;;
60612;SDS011;46443;59.792;17.626;2023-04-01T02:02:01;3.33;;;1.80;;
60612;SDS011;46443;59.792;17.626;2023-04-01T02:04:33;3.70;;;2.00;;
60612;SDS011;46443;59.792;17.626;2023-04-01T02:07:02;4.05;;;2.00;;
60612;SDS011;46443;59.792;17.626;2023-04-01T02:09:28;4.75;;;2.10;;
60612;SDS011;46443;59.792;17.626;2023-04-01T02:11:58;3.90;;;2.17;;
60612;SDS011;46443;59.792;17.626;2023-04-01T02:16:58;4.28;;;2.15;;
60612;SDS011;46443;59.792;17.626;2023-04-01T02:19:33;2.70;;;1.83;;
60612;SDS011;46443;59.792;17.626;2023-04-01T02:22:01;2.22;;;1.75;;
60612;SDS011;46443;59.792;17.626;2023-04-01T02:24:29;3.33;;;2.13;;
60612;SDS011;46443;59.792;17.626;2023-04-01T02:26:56;4.22;;;2.20;;
60612;SDS011;46443;59.792;17.626;2023-04-01T02:29:22;3.47;;;1.98;;
60612;SDS011;46443;59.792;17.626;2023-04-01T02:31:50;3.85;;;2.00;;
60612;SDS011;46443;59.792;17.626;2023-04-01T02:34:17;2.00;;;1.67;;
60612;SDS011;46443;59.792;17.626;2023-04-01T02:36:43;2.85;;;1.85;;
60612;SDS011;46443;59.792;17.626;2023-04-01T02:39:09;3.40;;;2.10;;
60612;SDS011;46443;59.792;17.626;2023-04-01T02:41:42;3.65;;;2.00;;
60612;SDS011;46443;59.792;17.626;2023-04-01T02:44:09;4.00;;;1.88;;
60612;SDS011;46443;59.792;17.626;2023-04-01T02:46:35;2.72;;;1.90;;
60612;SDS011;46443;59.792;17.626;2023-04-01T02:49:02;3.03;;;1.85;;
60612;SDS011;46443;59.792;17.626;2023-04-01T02:51:28;3.80;;;2.05;;
60612;SDS011;46443;59.792;17.626;2023-04-01T02:53:54;3.03;;;1.95;;
60612;SDS011;46443;59.792;17.626;2023-04-01T02:56:20;5.53;;;2.10;;
60612;SDS011;46443;59.792;17.626;2023-04-01T02:58:46;2.58;;;2.05;;
60612;SDS011;46443;59.792;17.626;2023-04-01T03:01:12;2.85;;;1.90;;
60612;SDS011;46443;59.792;17.626;2023-04-01T03:03:39;2.78;;;1.90;;
60612;SDS011;46443;59.792;17.626;2023-04-01T03:06:09;3.03;;;2.00;;
60612;SDS011;46443;59.792;17.626;2023-04-01T03:08:35;3.15;;;2.20;;
60612;SDS011;46443;59.792;17.626;2023-04-01T03:11:01;3.40;;;2.10;;
60612;SDS011;46443;59.792;17.626;2023-04-01T03:13:27;2.50;;;1.77;;
60612;SDS011;46443;59.792;17.626;2023-04-01T03:15:53;2.17;;;1.73;;
60612;SDS011;46443;59.792;17.626;2023-04-01T03:18:20;2.17;;;1.70;;
60612;SDS011;46443;59.792;17.626;2023-04-01T03:20:46;5.18;;;2.00;;
60612;SDS011;46443;59.792;17.626;2023-04-01T03:23:12;4.43;;;1.95;;
60612;SDS011;46443;59.792;17.626;2023-04-01T03:25:38;3.45;;;2.25;;
60612;SDS011;46443;59.792;17.626;2023-04-01T03:28:04;3.78;;;1.88;;
60612;SDS011;46443;59.792;17.626;2023-04-01T03:30:30;5.57;;;2.10;;
60612;SDS011;46443;59.792;17.626;2023-04-01T03:32:57;2.78;;;1.85;;
60612;SDS011;46443;59.792;17.626;2023-04-01T03:35:24;2.40;;;1.90;;
60612;SDS011;46443;59.792;17.626;2023-04-01T03:37:51;3.58;;;2.08;;
60612;SDS011;46443;59.792;17.626;2023-04-01T03:40:17;3.63;;;2.28;;
60612;SDS011;46443;59.792;17.626;2023-04-01T03:42:43;3.72;;;1.75;;
60612;SDS011;46443;59.792;17.626;2023-04-01T03:45:09;6.03;;;2.10;;
60612;SDS011;46443;59.792;17.626;2023-04-01T03:47:37;2.28;;;1.70;;
60612;SDS011;46443;59.792;17.626;2023-04-01T03:50:03;2.78;;;1.80;;
60612;SDS011;46443;59.792;17.626;2023-04-01T03:52:33;3.45;;;2.00;;
60612;SDS011;46443;59.792;17.626;2023-04-01T03:55:00;3.00;;;1.80;;
60612;SDS011;46443;59.792;17.626;2023-04-01T03:57:26;2.45;;;1.75;;
60612;SDS011;46443;59.792;17.626;2023-04-01T03:59:52;2.33;;;1.75;;
60612;SDS011;46443;59.792;17.626;2023-04-01T04:02:18;4.72;;;2.30;;
60612;SDS011;46443;59.792;17.626;2023-04-01T04:04:44;2.38;;;1.75;;
60612;SDS011;46443;59.792;17.626;2023-04-01T04:07:12;1.98;;;1.70;;
60612;SDS011;46443;59.792;17.626;2023-04-01T04:09:38;2.92;;;1.95;;
60612;SDS011;46443;59.792;17.626;2023-04-01T04:12:04;4.75;;;2.47;;
60612;SDS011;46443;59.792;17.626;2023-04-01T04:14:31;3.10;;;2.00;;
60612;SDS011;46443;59.792;17.626;2023-04-01T04:16:58;3.35;;;2.00;;
60612;SDS011;46443;59.792;17.626;2023-04-01T04:19:24;3.97;;;2.00;;
60612;SDS011;46443;59.792;17.626;2023-04-01T04:21:50;3.15;;;1.92;;
60612;SDS011;46443;59.792;17.626;2023-04-01T04:24:16;3.88;;;2.60;;
60612;SDS011;46443;59.792;17.626;2023-04-01T04:26:42;3.75;;;2.25;;
60612;SDS011;46443;59.792;17.626;2023-04-01T04:29:08;1.63;;;1.52;;
60612;SDS011;46443;59.792;17.626;2023-04-01T04:31:34;4.95;;;2.15;;
60612;SDS011;46443;59.792;17.626;2023-04-01T04:34:00;3.35;;;2.25;;
60612;SDS011;46443;59.792;17.626;2023-04-01T04:36:26;3.42;;;2.20;;
60612;SDS011;46443;59.792;17.626;2023-04-01T04:38:53;3.50;;;1.90;;
60612;SDS011;46443;59.792;17.626;2023-04-01T04:41:19;2.60;;;2.03;;
60612;SDS011;46443;59.792;17.626;2023-04-01T04:43:50;2.40;;;2.10;;
60612;SDS011;46443;59.792;17.626;2023-04-01T04:46:17;3.88;;;1.80;;
60612;SDS011;46443;59.792;17.626;2023-04-01T04:48:43;5.20;;;1.90;;
60612;SDS011;46443;59.792;17.626;2023-04-01T04:51:12;3.30;;;2.10;;
60612;SDS011;46443;59.792;17.626;2023-04-01T04:53:38;3.20;;;2.05;;
60612;SDS011;46443;59.792;17.626;2023-04-01T04:56:05;2.90;;;1.77;;
60612;SDS011;46443;59.792;17.626;2023-04-01T04:58:31;3.72;;;2.40;;
60612;SDS011;46443;59.792;17.626;2023-04-01T05:00:57;2.80;;;2.00;;
60612;SDS011;46443;59.792;17.626;2023-04-01T05:03:23;4.75;;;2.10;;
60612;SDS011;46443;59.792;17.626;2023-04-01T05:05:53;4.68;;;2.40;;
60612;SDS011;46443;59.792;17.626;2023-04-01T05:08:19;3.47;;;2.03;;
60612;SDS011;46443;59.792;17.626;2023-04-01T05:10:45;3.15;;;1.90;;
60612;SDS011;46443;59.792;17.626;2023-04-01T05:13:11;5.47;;;2.20;;
60612;SDS011;46443;59.792;17.626;2023-04-01T05:15:37;3.45;;;1.98;;
60612;SDS011;46443;59.792;17.626;2023-04-01T05:18:03;6.00;;;2.42;;
60612;SDS011;46443;59.792;17.626;2023-04-01T05:20:29;3.45;;;2.15;;
60612;SDS011;46443;59.792;17.626;2023-04-01T05:22:58;2.95;;;2.00;;
60612;SDS011;46443;59.792;17.626;2023-04-01T05:25:25;5.85;;;2.60;;
60612;SDS011;46443;59.792;17.626;2023-04-01T05:27:51;4.80;;;2.10;;
60612;SDS011;46443;59.792;17.626;2023-04-01T05:30:18;5.63;;;2.05;;
60612;SDS011;46443;59.792;17.626;2023-04-01T05:32:44;2.72;;;2.10;;
60612;SDS011;46443;59.792;17.626;2023-04-01T05:35:10;4.10;;;1.67;;
60612;SDS011;46443;59.792;17.626;2023-04-01T05:37:36;4.60;;;2.25;;
60612;SDS011;46443;59.792;17.626;2023-04-01T05:40:03;4.00;;;2.20;;
60612;SDS011;46443;59.792;17.626;2023-04-01T05:42:29;4.90;;;2.10;;
60612;SDS011;46443;59.792;17.626;2023-04-01T05:44:55;3.75;;;2.22;;
60612;SDS011;46443;59.792;17.626;2023-04-01T05:47:22;4.35;;;2.55;;
60612;SDS011;46443;59.792;17.626;2023-04-01T05:49:48;4.13;;;2.80;;
60612;SDS011;46443;59.792;17.626;2023-04-01T05:52:14;7.20;;;2.97;;
60612;SDS011;46443;59.792;17.626;2023-04-01T05:54:41;5.07;;;2.88;;
60612;SDS011;46443;59.792;17.626;2023-04-01T05:57:07;5.38;;;2.85;;
60612;SDS011;46443;59.792;17.626;2023-04-01T05:59:33;5.65;;;2.78;;
60612;SDS011;46443;59.792;17.626;2023-04-01T06:02:00;9.98;;;3.58;;
60612;SDS011;46443;59.792;17.626;2023-04-01T06:04:26;6.30;;;2.95;;
60612;SDS011;46443;59.792;17.626;2023-04-01T06:06:55;4.65;;;2.90;;
60612;SDS011;46443;59.792;17.626;2023-04-01T06:09:25;4.30;;;2.60;;
60612;SDS011;46443;59.792;17.626;2023-04-01T06:24:44;4.25;;;2.00;;
60612;SDS011;46443;59.792;17.626;2023-04-01T06:29:49;7.43;;;2.25;;
60612;SDS011;46443;59.792;17.626;2023-04-01T06:35:04;3.75;;;2.10;;
60612;SDS011;46443;59.792;17.626;2023-04-01T06:37:52;4.03;;;2.17;;
60612;SDS011;46443;59.792;17.626;2023-04-01T06:53:18;3.47;;;2.40;;
60612;SDS011;46443;59.792;17.626;2023-04-01T06:55:50;5.03;;;2.58;;
60612;SDS011;46443;59.792;17.626;2023-04-01T06:58:25;3.95;;;2.05;;
60612;SDS011;46443;59.792;17.626;2023-04-01T07:00:53;3.67;;;2.08;;
60612;SDS011;46443;59.792;17.626;2023-04-01T07:03:29;4.35;;;1.90;;
60612;SDS011;46443;59.792;17.626;2023-04-01T07:05:58;4.65;;;2.40;;
60612;SDS011;46443;59.792;17.626;2023-04-01T07:08:26;5.15;;;2.38;;
60612;SDS011;46443;59.792;17.626;2023-04-01T07:11:37;3.95;;;2.38;;
60612;SDS011;46443;59.792;17.626;2023-04-01T07:13:51;3.67;;;2.00;;
60612;SDS011;46443;59.792;17.626;2023-04-01T07:16:19;6.65;;;2.50;;
60612;SDS011;46443;59.792;17.626;2023-04-01T07:18:58;3.72;;;2.20;;
60612;SDS011;46443;59.792;17.626;2023-04-01T07:21:29;2.75;;;1.95;;
60612;SDS011;46443;59.792;17.626;2023-04-01T07:23:59;4.57;;;2.25;;
60612;SDS011;46443;59.792;17.626;2023-04-01T07:26:27;3.35;;;1.98;;
60612;SDS011;46443;59.792;17.626;2023-04-01T07:28:53;5.15;;;1.90;;
60612;SDS011;46443;59.792;17.626;2023-04-01T07:36:37;4.63;;;1.73;;
60612;SDS011;46443;59.792;17.626;2023-04-01T07:55:01;3.88;;;2.20;;
60612;SDS011;46443;59.792;17.626;2023-04-01T07:57:38;6.95;;;2.10;;
60612;SDS011;46443;59.792;17.626;2023-04-01T08:05:28;2.25;;;1.73;;
60612;SDS011;46443;59.792;17.626;2023-04-01T08:10:22;2.35;;;1.67;;
60612;SDS011;46443;59.792;17.626;2023-04-01T08:12:55;2.75;;;1.67;;
60612;SDS011;46443;59.792;17.626;2023-04-01T08:15:28;3.10;;;1.80;;
60612;SDS011;46443;59.792;17.626;2023-04-01T08:20:37;3.97;;;1.80;;
60612;SDS011;46443;59.792;17.626;2023-04-01T08:23:18;2.00;;;1.38;;
60612;SDS011;46443;59.792;17.626;2023-04-01T08:35:52;3.75;;;1.60;;
60612;SDS011;46443;59.792;17.626;2023-04-01T08:38:24;3.33;;;1.57;;
60612;SDS011;46443;59.792;17.626;2023-04-01T08:46:13;3.47;;;1.50;;
60612;SDS011;46443;59.792;17.626;2023-04-01T08:56:15;3.43;;;1.40;;
60612;SDS011;46443;59.792;17.626;2023-04-01T09:21:54;2.13;;;1.30;;
60612;SDS011;46443;59.792;17.626;2023-04-01T09:42:50;2.73;;;1.17;;
60612;SDS011;46443;59.792;17.626;2023-04-01T09:51:00;2.33;;;1.27;;
60612;SDS011;46443;59.792;17.626;2023-04-01T10:27:55;2.37;;;0.97;;
60612;SDS011;46443;59.792;17.626;2023-04-01T10:56:40;2.43;;;0.83;;
60612;SDS011;46443;59.792;17.626;2023-04-01T11:04:18;0.90;;;0.60;;
60612;SDS011;46443;59.792;17.626;2023-04-01T11:22:33;0.73;;;0.60;;
60612;SDS011;46443;59.792;17.626;2023-04-01T11:35:23;0.90;;;0.60;;
60612;SDS011;46443;59.792;17.626;2023-04-01T11:37:59;0.57;;;0.50;;
60612;SDS011;46443;59.792;17.626;2023-04-01T11:42:55;1.67;;;0.60;;
60612;SDS011;46443;59.792;17.626;2023-04-01T11:53:02;2.07;;;0.70;;
60612;SDS011;46443;59.792;17.626;2023-04-01T12:06:25;2.10;;;0.90;;
60612;SDS011;46443;59.792;17.626;2023-04-01T12:09:40;0.77;;;0.77;;
60612;SDS011;46443;59.792;17.626;2023-04-01T12:19:51;1.53;;;0.73;;
60612;SDS011;46443;59.792;17.626;2023-04-01T12:22:23;0.40;;;0.40;;
60612;SDS011;46443;59.792;17.626;2023-04-01T12:27:42;1.43;;;0.93;;
60612;SDS011;46443;59.792;17.626;2023-04-01T12:37:42;0.73;;;0.52;;
60612;SDS011;46443;59.792;17.626;2023-04-01T12:52:49;2.30;;;0.60;;
60612;SDS011;46443;59.792;17.626;2023-04-01T13:15:41;2.23;;;0.90;;
60612;SDS011;46443;59.792;17.626;2023-04-01T13:18:14;1.90;;;0.97;;
60612;SDS011;46443;59.792;17.626;2023-04-01T13:23:28;1.97;;;1.10;;
60612;SDS011;46443;59.792;17.626;2023-04-01T13:26:17;1.17;;;0.90;;
60612;SDS011;46443;59.792;17.626;2023-04-01T13:29:09;3.13;;;0.70;;
60612;SDS011;46443;59.792;17.626;2023-04-01T13:42:17;2.00;;;1.00;;
60612;SDS011;46443;59.792;17.626;2023-04-01T13:44:56;1.90;;;1.23;;
60612;SDS011;46443;59.792;17.626;2023-04-01T13:53:04;1.50;;;0.83;;
60612;SDS011;46443;59.792;17.626;2023-04-01T13:55:35;2.00;;;1.00;;
60612;SDS011;46443;59.792;17.626;2023-04-01T14:05:48;2.07;;;1.03;;
60612;SDS011;46443;59.792;17.626;2023-04-01T14:13:31;2.67;;;0.80;;
60612;SDS011;46443;59.792;17.626;2023-04-01T14:21:11;3.43;;;1.10;;
60612;SDS011;46443;59.792;17.626;2023-04-01T14:33:33;1.77;;;1.00;;
60612;SDS011;46443;59.792;17.626;2023-04-01T14:41:28;1.97;;;1.03;;
60612;SDS011;46443;59.792;17.626;2023-04-01T14:49:22;2.77;;;1.20;;
60612;SDS011;46443;59.792;17.626;2023-04-01T14:51:50;2.83;;;1.10;;
60612;SDS011;46443;59.792;17.626;2023-04-01T14:54:19;2.00;;;1.13;;
60612;SDS011;46443;59.792;17.626;2023-04-01T14:56:50;2.73;;;0.90;;
60612;SDS011;46443;59.792;17.626;2023-04-01T15:06:46;1.50;;;1.00;;
60612;SDS011;46443;59.792;17.626;2023-04-01T15:12:50;1.93;;;1.13;;
60612;SDS011;46443;59.792;17.626;2023-04-01T15:30:23;2.30;;;0.83;;
60612;SDS011;46443;59.792;17.626;2023-04-01T15:33:00;0.93;;;0.73;;
60612;SDS011;46443;59.792;17.626;2023-04-01T15:35:39;3.23;;;1.20;;
60612;SDS011;46443;59.792;17.626;2023-04-01T15:38:49;3.13;;;0.93;;
60612;SDS011;46443;59.792;17.626;2023-04-01T15:46:19;3.38;;;1.00;;
60612;SDS011;46443;59.792;17.626;2023-04-01T15:51:21;1.70;;;0.97;;
60612;SDS011;46443;59.792;17.626;2023-04-01T15:56:49;2.67;;;1.20;;
60612;SDS011;46443;59.792;17.626;2023-04-01T16:04:46;4.57;;;1.30;;
60612;SDS011;46443;59.792;17.626;2023-04-01T16:20:07;1.07;;;1.07;;
60612;SDS011;46443;59.792;17.626;2023-04-01T16:22:58;1.07;;;0.97;;
60612;SDS011;46443;59.792;17.626;2023-04-01T16:38:26;1.23;;;1.00;;
60612;SDS011;46443;59.792;17.626;2023-04-01T16:51:11;3.78;;;1.40;;
60612;SDS011;46443;59.792;17.626;2023-04-01T16:53:49;3.97;;;1.30;;
60612;SDS011;46443;59.792;17.626;2023-04-01T16:59:02;4.65;;;1.60;;
60612;SDS011;46443;59.792;17.626;2023-04-01T17:04:19;5.05;;;1.50;;
60612;SDS011;46443;59.792;17.626;2023-04-01T17:11:47;1.33;;;1.23;;
60612;SDS011;46443;59.792;17.626;2023-04-01T17:25:08;7.30;;;1.95;;
60612;SDS011;46443;59.792;17.626;2023-04-01T17:28:24;4.82;;;1.50;;
60612;SDS011;46443;59.792;17.626;2023-04-01T17:35:23;3.63;;;1.48;;
60612;SDS011;46443;59.792;17.626;2023-04-01T17:40:40;5.18;;;1.70;;
60612;SDS011;46443;59.792;17.626;2023-04-01T17:45:49;3.70;;;1.73;;
60612;SDS011;46443;59.792;17.626;2023-04-01T18:01:40;2.65;;;1.58;;
60612;SDS011;46443;59.792;17.626;2023-04-01T18:04:11;5.90;;;2.13;;
60612;SDS011;46443;59.792;17.626;2023-04-01T18:14:39;2.83;;;1.55;;
60612;SDS011;46443;59.792;17.626;2023-04-01T18:27:33;4.38;;;1.52;;
60612;SDS011;46443;59.792;17.626;2023-04-01T18:32:36;4.15;;;1.70;;
60612;SDS011;46443;59.792;17.626;2023-04-01T18:38:00;3.30;;;1.52;;
60612;SDS011;46443;59.792;17.626;2023-04-01T18:40:36;7.35;;;2.22;;
60612;SDS011;46443;59.792;17.626;2023-04-01T18:45:57;4.10;;;1.80;;
60612;SDS011;46443;59.792;17.626;2023-04-01T18:48:37;4.80;;;1.83;;
60612;SDS011;46443;59.792;17.626;2023-04-01T18:51:13;3.85;;;1.70;;
60612;SDS011;46443;59.792;17.626;2023-04-01T18:53:45;5.63;;;1.70;;
60612;SDS011;46443;59.792;17.626;2023-04-01T18:56:14;4.93;;;1.63;;
60612;SDS011;46443;59.792;17.626;2023-04-01T18:58:54;5.60;;;2.00;;
60612;SDS011;46443;59.792;17.626;2023-04-01T19:06:33;5.45;;;2.05;;
60612;SDS011;46443;59.792;17.626;2023-04-01T19:09:14;5.88;;;1.90;;
60612;SDS011;46443;59.792;17.626;2023-04-01T19:11:47;7.30;;;1.67;;
60612;SDS011;46443;59.792;17.626;2023-04-01T19:16:59;5.35;;;1.88;;
60612;SDS011;46443;59.792;17.626;2023-04-01T19:21:56;4.72;;;1.95;;
60612;SDS011;46443;59.792;17.626;2023-04-01T19:38:14;7.07;;;2.50;;
60612;SDS011;46443;59.792;17.626;2023-04-01T19:40:16;4.30;;;1.55;;
60612;SDS011;46443;59.792;17.626;2023-04-01T19:42:54;4.35;;;1.80;;
60612;SDS011;46443;59.792;17.626;2023-04-01T19:52:50;7.43;;;2.25;;
60612;SDS011;46443;59.792;17.626;2023-04-01T19:58:17;3.42;;;1.90;;
60612;SDS011;46443;59.792;17.626;2023-04-01T20:01:07;4.38;;;2.08;;
60612;SDS011;46443;59.792;17.626;2023-04-01T20:08:33;4.45;;;1.63;;
60612;SDS011;46443;59.792;17.626;2023-04-01T20:11:01;5.13;;;1.98;;
60612;SDS011;46443;59.792;17.626;2023-04-01T20:16:03;5.45;;;2.00;;
60612;SDS011;46443;59.792;17.626;2023-04-01T20:18:37;3.60;;;1.70;;
60612;SDS011;46443;59.792;17.626;2023-04-01T20:21:06;4.65;;;1.90;;
60612;SDS011;46443;59.792;17.626;2023-04-01T20:23:54;4.72;;;1.98;;
60612;SDS011;46443;59.792;17.626;2023-04-01T20:26:24;3.50;;;1.92;;
60612;SDS011;46443;59.792;17.626;2023-04-01T20:31:31;4.03;;;2.20;;
60612;SDS011;46443;59.792;17.626;2023-04-01T20:34:15;3.90;;;1.92;;
60612;SDS011;46443;59.792;17.626;2023-04-01T20:49:45;3.45;;;1.58;;
60612;SDS011;46443;59.792;17.626;2023-04-01T20:54:46;4.57;;;2.00;;
60612;SDS011;46443;59.792;17.626;2023-04-01T21:00:41;6.00;;;1.88;;
60612;SDS011;46443;59.792;17.626;2023-04-01T21:02:58;3.95;;;1.83;;
60612;SDS011;46443;59.792;17.626;2023-04-01T21:08:32;2.60;;;1.70;;
60612;SDS011;46443;59.792;17.626;2023-04-01T21:19:03;5.45;;;2.00;;
60612;SDS011;46443;59.792;17.626;2023-04-01T21:34:34;5.53;;;2.28;;
60612;SDS011;46443;59.792;17.626;2023-04-01T21:52:54;4.88;;;1.83;;
60612;SDS011;46443;59.792;17.626;2023-04-01T22:00:39;6.07;;;1.98;;
60612;SDS011;46443;59.792;17.626;2023-04-01T22:13:49;5.38;;;1.90;;
60612;SDS011;46443;59.792;17.626;2023-04-01T22:26:57;4.05;;;1.80;;
60612;SDS011;46443;59.792;17.626;2023-04-01T22:29:27;3.47;;;1.90;;
60612;SDS011;46443;59.792;17.626;2023-04-01T22:32:05;3.88;;;2.00;;
60612;SDS011;46443;59.792;17.626;2023-04-01T22:50:26;4.95;;;1.83;;
60612;SDS011;46443;59.792;17.626;2023-04-01T22:55:43;4.07;;;1.88;;
60612;SDS011;46443;59.792;17.626;2023-04-01T22:58:14;5.68;;;1.90;;
60612;SDS011;46443;59.792;17.626;2023-04-01T23:00:44;4.63;;;2.13;;
60612;SDS011;46443;59.792;17.626;2023-04-01T23:03:14;4.57;;;1.88;;
60612;SDS011;46443;59.792;17.626;2023-04-01T23:05:46;4.10;;;1.98;;
60612;SDS011;46443;59.792;17.626;2023-04-01T23:10:52;3.90;;;1.75;;
60612;SDS011;46443;59.792;17.626;2023-04-01T23:13:25;7.53;;;2.40;;
60612;SDS011;46443;59.792;17.626;2023-04-01T23:15:52;7.70;;;2.00;;
60612;SDS011;46443;59.792;17.626;2023-04-01T23:18:27;5.28;;;2.22;;
60612;SDS011;46443;59.792;17.626;2023-04-01T23:35:48;3.58;;;1.92;;
60612;SDS011;46443;59.792;17.626;2023-04-01T23:38:16;5.22;;;1.77;;
60612;SDS011;46443;59.792;17.626;2023-04-01T23:40:42;3.35;;;1.75;;
60612;SDS011;46443;59.792;17.626;2023-04-01T23:43:18;3.30;;;1.80;;
60612;SDS011;46443;59.792;17.626;2023-04-01T23:45:47;4.82;;;1.50;;
60612;SDS011;46443;59.792;17.626;2023-04-01T23:48:14;5.50;;;2.13;;
60612;SDS011;46443;59.792;17.626;2023-04-01T23:50:41;5.22;;;1.90;;
60612;SDS011;46443;59.792;17.626;2023-04-01T23:53:24;6.20;;;1.80;;
60612;SDS011;46443;59.792;17.626;2023-04-01T23:55:51;2.35;;;1.60;;
60612;SDS011;46443;59.792;17.626;2023-04-01T23:58:21;4.05;;;1.90;;
